Grand Forks, ND (58201)

11:30 AM CST on February 01, 2015 (GMT -0600)
CWOP Grand Forks | Change Station
CLOSE
Current Station
Personal Weather Station
Location: Grand Forks, ND
Elevation: 840 ft
Nearby Weather Stations

Elev 840 ft 47.89 °N, 97.08 °W | Updated 3 minutes ago

Mostly Cloudy
Mostly Cloudy
-7.6 °F
Feels Like -19 °F
N
4.5
Wind Variable Wind from North
Gusts 7.6 mph

Today
High -- | Low -- °F
--% Chance of Precip.
Yesterday
High -- | Low -- °F
Precip. -- in
7:55 AM 5:28 PM
Waxing Gibbous, 95% visible
Pressure 30.67 in
Visibility 10.0 miles
Clouds Scattered Clouds 20000 ft
Windchill -19 °F
Dew Point -16 °F
Humidity 64%
Rainfall 0.00 in
Snow Depth Not available.
UV 1 out of 12
Pollen .10 out of 12
Air Quality Not available.
Flu Activity Not available.
METAR KGFK 011653Z 36009KT 10SM SCT200 M21/M27 A3058 RMK AO2 SLP384 T12111272

More Conditions Fewer Conditions

Pressure 30.67 in
Visibility 10.0 miles
Clouds Scattered Clouds 20000 ft
Windchill -19 °F
Dew Point -16 °F
Humidity 64%
Rainfall 0.00 in
Snow Depth Not available.
UV 1 out of 12
Pollen .10 out of 12
Air Quality Not available.
Flu Activity Not available.
METAR KGFK 011653Z 36009KT 10SM SCT200 M21/M27 A3058 RMK AO2 SLP384 T12111272

More Conditions Fewer Conditions

10-Day Weather Forecast

Almanac

Astronomy

Feb. 01, 2015 Rise Set
Actual Time
Civil Twilight
Nautical Twilight
Astronomical Twilight
Moon
Length of Visible Light
Length of Day
Tomorrow will be .
, % of the Moon is Illuminated

Today's Extremes

State Highs State Lows

Community

WunderPhotos

Upload Photos

1,792,405 photos uploaded!

WunderBlogs® & News

Nearby

Air Quality

  Air Quality AQ Index Pollutant
Not available.

Snow Depth

Station Depth Elevation

Earthquake Activity

City Distance Mag. Time & Date
Minimum magnitude displayed is 2.5.

Coastal Water Temperatures

Place Temperature

Nearby Weather Stations